Overview Statistics Trail Chart Weather Telemetry Raw packets
 

This is the latest recevied weather packets stored in our database for station/object N4XHQ-13. If no packets are shown the sender has not sent any weather packets the latest 10 day(s).

<< 5 6 7 8 9 10 11 >>
Time Temp. Humidity Pressure Rain* Wind** Luminosity Snow
1788530582 31.11° C 59% 1016.9 hPa 0 mm - 227 W/m² -
1788530281 31.67° C 59% 1016.7 hPa 0 mm - 361 W/m² -
1788529976 31.11° C 59% 1016.7 hPa 0 mm - 341 W/m² -
1788529673 30.56° C 61% 1016.7 hPa 0 mm - 322 W/m² -
1788529372 30° C 63% 1016.6 hPa 0 mm - 306 W/m² -
1788529067 29.44° C 64% 1016.6 hPa 0 mm - 286 W/m² -
1788528763 28.89° C 68% 1016.6 hPa 0 mm - 271 W/m² -
1788528462 27.78° C 71% 1016.4 hPa 0 mm - 258 W/m² -
1788528158 27.22° C 73% 1016.5 hPa 0 mm - 214 W/m² -
1788527856 26.67° C 74% 1016.4 hPa 0 mm - 135 W/m² -
1788527553 26.11° C 76% 1016.4 hPa 0 mm - 95 W/m² -
1788527252 26.11° C 78% 1016.4 hPa 0 mm - 88 W/m² -
1788526951 25.56° C 80% 1016.5 hPa 0 mm - 72 W/m² -
1788526648 25.56° C 80% 1016.4 hPa 0 mm - 55 W/m² -
1788526362 25.56° C 80% 1016.2 hPa 0 mm - 53 W/m² -
1788526043 25.56° C 81% 1016.2 hPa 0 mm - 44 W/m² -
1788525740 25° C 81% 1016.3 hPa 0 mm - 39 W/m² -
1788525434 25° C 82% 1016.2 hPa 0 mm - 40 W/m² -
1788525130 25° C 83% 1016.1 hPa 0 mm - 33 W/m² -
1788524830 25° C 83% 1016.2 hPa 0 mm - 31 W/m² -
1788524525 25° C 83% 1016 hPa 0 mm - 28 W/m² -
1788524220 25° C 82% 1015.9 hPa 0 mm - 26 W/m² -
1788523915 25° C 83% 1016 hPa 0 mm - 28 W/m² -
1788523612 25° C 82% 1016 hPa 0 mm - 29 W/m² -
1788523308 25° C 83% 1015.9 hPa 0 mm - 28 W/m² -

* Rain latest hour (hover to see other rain measurements)
** Current wind speed in m/s (hover to see current wind gust speed)